Holloway, Louisiana
Current Conditions -  °F | °C
As of 7:53 AM on Thursday 29 Jan 2015 (Local Time) from KESF Reporting Station
Haze Haze  
Wind Chill: 14°   Ceiling: 200
Heat Index: 14°   Visibility: 3mi
Dew Point: 13°   Wind: 3mph
Humidity: 93%   Direction: 230°SW
Pressure: 30.21"   Gusts: NA
Location:  31.3606°N, 92.2142°W
Report Text: KESF 291353Z AUTO 23003KT 3SM BR OVC002 14/13 A3021 RMK AO2 SLP228 T01390128
Loading
Personal Weather Stations






























Interactive Weather Map New forecast layout! Learn more

10-Day Weather Forecast

Advertisements
Track Severe Weather on mobile